sensor_id;sensor_type;location;lat;lon;timestamp;temperature;humidity
72712;SHT30;60828;40.292;17.998;2022-12-20T00:00:46;8.51;86.63
72712;SHT30;60828;40.292;17.998;2022-12-20T00:03:11;8.46;86.70
72712;SHT30;60828;40.292;17.998;2022-12-20T00:05:41;8.39;86.78
72712;SHT30;60828;40.292;17.998;2022-12-20T00:08:07;8.37;86.94
72712;SHT30;60828;40.292;17.998;2022-12-20T00:10:38;8.41;87.03
72712;SHT30;60828;40.292;17.998;2022-12-20T00:13:04;8.47;87.06
72712;SHT30;60828;40.292;17.998;2022-12-20T00:15:30;8.40;86.76
72712;SHT30;60828;40.292;17.998;2022-12-20T00:17:56;8.46;86.77
72712;SHT30;60828;40.292;17.998;2022-12-20T00:20:22;8.39;86.67
72712;SHT30;60828;40.292;17.998;2022-12-20T00:22:47;8.41;86.68
72712;SHT30;60828;40.292;17.998;2022-12-20T00:25:13;8.43;86.71
72712;SHT30;60828;40.292;17.998;2022-12-20T00:27:38;8.34;86.85
72712;SHT30;60828;40.292;17.998;2022-12-20T00:30:04;8.33;87.07
72712;SHT30;60828;40.292;17.998;2022-12-20T00:32:30;8.32;86.97
72712;SHT30;60828;40.292;17.998;2022-12-20T00:34:56;8.36;87.03
72712;SHT30;60828;40.292;17.998;2022-12-20T00:37:21;8.53;86.97
72712;SHT30;60828;40.292;17.998;2022-12-20T00:39:47;8.54;86.72
72712;SHT30;60828;40.292;17.998;2022-12-20T00:42:12;8.50;86.58
72712;SHT30;60828;40.292;17.998;2022-12-20T00:44:38;8.50;86.64
72712;SHT30;60828;40.292;17.998;2022-12-20T00:47:03;8.56;86.50
72712;SHT30;60828;40.292;17.998;2022-12-20T00:49:29;8.33;86.70
72712;SHT30;60828;40.292;17.998;2022-12-20T00:51:54;8.29;86.89
72712;SHT30;60828;40.292;17.998;2022-12-20T00:54:20;8.32;86.80
72712;SHT30;60828;40.292;17.998;2022-12-20T00:56:45;8.30;86.75
72712;SHT30;60828;40.292;17.998;2022-12-20T00:59:11;8.33;86.66
72712;SHT30;60828;40.292;17.998;2022-12-20T01:01:36;8.26;86.60
72712;SHT30;60828;40.292;17.998;2022-12-20T01:04:02;8.22;87.03
72712;SHT30;60828;40.292;17.998;2022-12-20T01:06:28;8.22;87.11
72712;SHT30;60828;40.292;17.998;2022-12-20T01:08:55;8.14;86.95
72712;SHT30;60828;40.292;17.998;2022-12-20T01:11:26;8.23;86.57
72712;SHT30;60828;40.292;17.998;2022-12-20T01:13:55;8.22;86.61
72712;SHT30;60828;40.292;17.998;2022-12-20T01:16:35;8.37;86.59
72712;SHT30;60828;40.292;17.998;2022-12-20T01:19:02;8.40;86.52
72712;SHT30;60828;40.292;17.998;2022-12-20T01:21:28;8.29;86.52
72712;SHT30;60828;40.292;17.998;2022-12-20T01:23:54;8.20;86.64
72712;SHT30;60828;40.292;17.998;2022-12-20T01:26:22;8.26;86.35
72712;SHT30;60828;40.292;17.998;2022-12-20T01:28:50;8.17;86.59
72712;SHT30;60828;40.292;17.998;2022-12-20T01:31:17;8.10;86.84
72712;SHT30;60828;40.292;17.998;2022-12-20T01:33:44;8.05;86.98
72712;SHT30;60828;40.292;17.998;2022-12-20T01:36:14;8.01;87.06
72712;SHT30;60828;40.292;17.998;2022-12-20T01:38:40;7.99;87.14
72712;SHT30;60828;40.292;17.998;2022-12-20T01:41:05;8.07;87.18
72712;SHT30;60828;40.292;17.998;2022-12-20T01:43:51;7.74;87.04
72712;SHT30;60828;40.292;17.998;2022-12-20T01:46:19;7.75;87.01
72712;SHT30;60828;40.292;17.998;2022-12-20T01:48:51;7.79;87.11
72712;SHT30;60828;40.292;17.998;2022-12-20T01:51:18;7.78;87.23
72712;SHT30;60828;40.292;17.998;2022-12-20T01:53:45;7.78;87.09
72712;SHT30;60828;40.292;17.998;2022-12-20T01:56:11;7.70;87.06
72712;SHT30;60828;40.292;17.998;2022-12-20T01:58:37;7.71;87.39
72712;SHT30;60828;40.292;17.998;2022-12-20T02:01:03;7.70;87.25
72712;SHT30;60828;40.292;17.998;2022-12-20T02:03:29;7.70;87.31
72712;SHT30;60828;40.292;17.998;2022-12-20T02:05:55;7.55;87.36
72712;SHT30;60828;40.292;17.998;2022-12-20T02:08:21;7.61;87.35
72712;SHT30;60828;40.292;17.998;2022-12-20T02:11:18;7.60;87.53
72712;SHT30;60828;40.292;17.998;2022-12-20T02:14:10;7.64;87.46
72712;SHT30;60828;40.292;17.998;2022-12-20T02:16:44;7.61;87.53
72712;SHT30;60828;40.292;17.998;2022-12-20T02:22:34;7.64;87.46
72712;SHT30;60828;40.292;17.998;2022-12-20T02:30:57;7.70;87.55
72712;SHT30;60828;40.292;17.998;2022-12-20T02:33:25;7.65;87.54
72712;SHT30;60828;40.292;17.998;2022-12-20T02:35:52;7.74;87.54
72712;SHT30;60828;40.292;17.998;2022-12-20T02:38:35;7.70;87.56
72712;SHT30;60828;40.292;17.998;2022-12-20T02:43:42;7.65;87.64
72712;SHT30;60828;40.292;17.998;2022-12-20T02:46:28;7.71;87.62
72712;SHT30;60828;40.292;17.998;2022-12-20T02:49:00;7.74;87.64
72712;SHT30;60828;40.292;17.998;2022-12-20T02:51:29;7.75;87.37
72712;SHT30;60828;40.292;17.998;2022-12-20T02:53:58;7.72;87.52
72712;SHT30;60828;40.292;17.998;2022-12-20T02:56:31;7.81;87.44
72712;SHT30;60828;40.292;17.998;2022-12-20T03:01:41;7.75;87.16
72712;SHT30;60828;40.292;17.998;2022-12-20T03:04:09;7.71;87.35
72712;SHT30;60828;40.292;17.998;2022-12-20T03:06:35;7.67;87.44
72712;SHT30;60828;40.292;17.998;2022-12-20T03:09:01;7.60;87.59
72712;SHT30;60828;40.292;17.998;2022-12-20T03:11:26;7.63;87.67
72712;SHT30;60828;40.292;17.998;2022-12-20T03:13:52;7.63;87.73
72712;SHT30;60828;40.292;17.998;2022-12-20T03:16:18;7.57;87.75
72712;SHT30;60828;40.292;17.998;2022-12-20T03:18:43;7.64;87.83
72712;SHT30;60828;40.292;17.998;2022-12-20T03:21:10;7.61;87.73
72712;SHT30;60828;40.292;17.998;2022-12-20T03:23:36;7.71;87.70
72712;SHT30;60828;40.292;17.998;2022-12-20T03:26:01;7.72;87.65
72712;SHT30;60828;40.292;17.998;2022-12-20T03:28:27;7.78;87.60
72712;SHT30;60828;40.292;17.998;2022-12-20T03:30:52;7.82;87.58
72712;SHT30;60828;40.292;17.998;2022-12-20T03:33:18;7.78;87.55
72712;SHT30;60828;40.292;17.998;2022-12-20T03:35:43;7.81;87.43
72712;SHT30;60828;40.292;17.998;2022-12-20T03:38:09;7.68;87.62
72712;SHT30;60828;40.292;17.998;2022-12-20T03:40:34;7.68;87.58
72712;SHT30;60828;40.292;17.998;2022-12-20T03:43:00;7.65;87.67
72712;SHT30;60828;40.292;17.998;2022-12-20T03:45:25;7.77;87.73
72712;SHT30;60828;40.292;17.998;2022-12-20T03:47:51;7.75;87.68
72712;SHT30;60828;40.292;17.998;2022-12-20T03:50:16;7.78;87.77
72712;SHT30;60828;40.292;17.998;2022-12-20T03:52:42;7.77;87.71
72712;SHT30;60828;40.292;17.998;2022-12-20T03:55:08;7.83;87.62
72712;SHT30;60828;40.292;17.998;2022-12-20T03:57:34;7.78;87.53
72712;SHT30;60828;40.292;17.998;2022-12-20T03:59:59;7.88;87.63
72712;SHT30;60828;40.292;17.998;2022-12-20T04:02:25;7.89;87.62
72712;SHT30;60828;40.292;17.998;2022-12-20T04:04:50;7.81;87.43
72712;SHT30;60828;40.292;17.998;2022-12-20T04:07:16;7.89;87.51
72712;SHT30;60828;40.292;17.998;2022-12-20T04:09:42;7.86;87.25
72712;SHT30;60828;40.292;17.998;2022-12-20T04:12:07;7.81;87.43
72712;SHT30;60828;40.292;17.998;2022-12-20T04:14:33;7.91;87.51
72712;SHT30;60828;40.292;17.998;2022-12-20T04:17:00;7.92;87.13
72712;SHT30;60828;40.292;17.998;2022-12-20T04:19:25;7.85;87.26
72712;SHT30;60828;40.292;17.998;2022-12-20T04:21:51;7.79;87.35
72712;SHT30;60828;40.292;17.998;2022-12-20T04:24:16;7.79;87.39
72712;SHT30;60828;40.292;17.998;2022-12-20T04:26:42;7.88;87.30
72712;SHT30;60828;40.292;17.998;2022-12-20T04:29:07;7.85;87.25
72712;SHT30;60828;40.292;17.998;2022-12-20T04:31:33;7.77;87.26
72712;SHT30;60828;40.292;17.998;2022-12-20T04:33:58;7.68;87.16
72712;SHT30;60828;40.292;17.998;2022-12-20T04:36:24;7.74;87.10
72712;SHT30;60828;40.292;17.998;2022-12-20T04:38:49;7.71;87.27
72712;SHT30;60828;40.292;17.998;2022-12-20T04:41:15;7.61;87.42
72712;SHT30;60828;40.292;17.998;2022-12-20T04:43:50;7.65;87.59
72712;SHT30;60828;40.292;17.998;2022-12-20T04:46:17;7.58;87.67
72712;SHT30;60828;40.292;17.998;2022-12-20T04:48:43;7.54;87.71
72712;SHT30;60828;40.292;17.998;2022-12-20T04:51:08;7.51;87.77
72712;SHT30;60828;40.292;17.998;2022-12-20T04:53:34;7.54;87.80
72712;SHT30;60828;40.292;17.998;2022-12-20T04:59:04;7.63;87.72
72712;SHT30;60828;40.292;17.998;2022-12-20T05:01:30;7.55;87.73
72712;SHT30;60828;40.292;17.998;2022-12-20T05:03:55;7.70;87.66
72712;SHT30;60828;40.292;17.998;2022-12-20T05:06:21;7.63;87.53
72712;SHT30;60828;40.292;17.998;2022-12-20T05:08:46;7.58;87.50
72712;SHT30;60828;40.292;17.998;2022-12-20T05:11:12;7.51;87.55
72712;SHT30;60828;40.292;17.998;2022-12-20T05:13:38;7.53;87.54
72712;SHT30;60828;40.292;17.998;2022-12-20T05:16:04;7.57;87.44
72712;SHT30;60828;40.292;17.998;2022-12-20T05:18:29;7.58;87.38
72712;SHT30;60828;40.292;17.998;2022-12-20T05:20:57;7.60;87.48
72712;SHT30;60828;40.292;17.998;2022-12-20T05:23:41;7.51;87.43
72712;SHT30;60828;40.292;17.998;2022-12-20T05:26:30;7.37;87.58
72712;SHT30;60828;40.292;17.998;2022-12-20T05:28:56;7.30;87.68
72712;SHT30;60828;40.292;17.998;2022-12-20T05:31:21;7.30;87.67
72712;SHT30;60828;40.292;17.998;2022-12-20T05:33:47;7.37;87.78
72712;SHT30;60828;40.292;17.998;2022-12-20T05:36:12;7.44;87.53
72712;SHT30;60828;40.292;17.998;2022-12-20T05:38:38;7.42;87.53
72712;SHT30;60828;40.292;17.998;2022-12-20T05:41:04;7.38;87.56
72712;SHT30;60828;40.292;17.998;2022-12-20T05:43:31;7.40;87.67
72712;SHT30;60828;40.292;17.998;2022-12-20T05:45:59;7.37;87.71
72712;SHT30;60828;40.292;17.998;2022-12-20T05:48:25;7.46;87.67
72712;SHT30;60828;40.292;17.998;2022-12-20T05:50:50;7.38;87.77
72712;SHT30;60828;40.292;17.998;2022-12-20T05:53:16;7.34;87.75
72712;SHT30;60828;40.292;17.998;2022-12-20T05:55:51;7.43;87.78
72712;SHT30;60828;40.292;17.998;2022-12-20T05:58:17;7.48;87.73
72712;SHT30;60828;40.292;17.998;2022-12-20T06:00:43;7.44;87.63
72712;SHT30;60828;40.292;17.998;2022-12-20T06:03:10;7.50;87.62
72712;SHT30;60828;40.292;17.998;2022-12-20T06:05:36;7.57;87.50
72712;SHT30;60828;40.292;17.998;2022-12-20T06:08:03;7.48;87.54
72712;SHT30;60828;40.292;17.998;2022-12-20T06:10:30;7.50;87.57
72712;SHT30;60828;40.292;17.998;2022-12-20T06:12:55;7.64;87.40
72712;SHT30;60828;40.292;17.998;2022-12-20T06:15:21;7.68;87.34
72712;SHT30;60828;40.292;17.998;2022-12-20T06:17:46;7.63;87.32
72712;SHT30;60828;40.292;17.998;2022-12-20T06:20:12;7.63;87.40
72712;SHT30;60828;40.292;17.998;2022-12-20T06:22:37;7.67;87.40
72712;SHT30;60828;40.292;17.998;2022-12-20T06:25:03;7.74;87.32
72712;SHT30;60828;40.292;17.998;2022-12-20T06:27:29;7.72;87.35
72712;SHT30;60828;40.292;17.998;2022-12-20T06:29:55;7.81;87.34
72712;SHT30;60828;40.292;17.998;2022-12-20T06:32:20;7.75;87.12
72712;SHT30;60828;40.292;17.998;2022-12-20T06:34:46;7.79;87.04
72712;SHT30;60828;40.292;17.998;2022-12-20T06:37:11;7.88;87.01
72712;SHT30;60828;40.292;17.998;2022-12-20T06:39:37;7.99;86.84
72712;SHT30;60828;40.292;17.998;2022-12-20T06:42:03;8.47;86.84
72712;SHT30;60828;40.292;17.998;2022-12-20T06:44:28;10.08;84.62
72712;SHT30;60828;40.292;17.998;2022-12-20T06:46:54;11.63;80.20
72712;SHT30;60828;40.292;17.998;2022-12-20T06:49:19;12.24;76.07
72712;SHT30;60828;40.292;17.998;2022-12-20T06:51:46;11.65;76.06
72712;SHT30;60828;40.292;17.998;2022-12-20T06:54:12;11.07;78.80
72712;SHT30;60828;40.292;17.998;2022-12-20T06:56:37;10.74;80.04
72712;SHT30;60828;40.292;17.998;2022-12-20T06:59:04;10.47;80.68
72712;SHT30;60828;40.292;17.998;2022-12-20T07:01:29;10.45;81.33
72712;SHT30;60828;40.292;17.998;2022-12-20T07:03:55;10.28;81.93
72712;SHT30;60828;40.292;17.998;2022-12-20T07:06:20;10.33;82.12
72712;SHT30;60828;40.292;17.998;2022-12-20T07:08:45;10.32;82.24
72712;SHT30;60828;40.292;17.998;2022-12-20T07:11:11;10.45;82.58
72712;SHT30;60828;40.292;17.998;2022-12-20T07:13:36;10.40;82.43
72712;SHT30;60828;40.292;17.998;2022-12-20T07:16:03;10.52;82.68
72712;SHT30;60828;40.292;17.998;2022-12-20T07:18:28;10.81;82.10
72712;SHT30;60828;40.292;17.998;2022-12-20T07:20:58;11.19;81.51
72712;SHT30;60828;40.292;17.998;2022-12-20T07:23:24;11.74;80.88
72712;SHT30;60828;40.292;17.998;2022-12-20T07:25:53;14.00;77.37
72712;SHT30;60828;40.292;17.998;2022-12-20T07:28:19;17.29;66.95
72712;SHT30;60828;40.292;17.998;2022-12-20T07:30:45;19.69;57.30
72712;SHT30;60828;40.292;17.998;2022-12-20T07:33:10;21.78;51.72
72712;SHT30;60828;40.292;17.998;2022-12-20T07:35:35;23.34;49.39
72712;SHT30;60828;40.292;17.998;2022-12-20T07:38:01;24.32;46.27
72712;SHT30;60828;40.292;17.998;2022-12-20T07:40:26;24.83;44.42
72712;SHT30;60828;40.292;17.998;2022-12-20T07:42:52;25.43;43.11
72712;SHT30;60828;40.292;17.998;2022-12-20T07:45:17;25.26;42.57
72712;SHT30;60828;40.292;17.998;2022-12-20T07:47:43;26.00;41.95
72712;SHT30;60828;40.292;17.998;2022-12-20T07:50:08;26.27;42.12
72712;SHT30;60828;40.292;17.998;2022-12-20T07:52:35;26.01;41.31
72712;SHT30;60828;40.292;17.998;2022-12-20T07:55:03;27.07;40.16
72712;SHT30;60828;40.292;17.998;2022-12-20T07:57:54;26.84;39.87
72712;SHT30;60828;40.292;17.998;2022-12-20T08:00:21;24.67;43.31
72712;SHT30;60828;40.292;17.998;2022-12-20T08:03:00;22.41;47.88
72712;SHT30;60828;40.292;17.998;2022-12-20T08:05:27;22.40;48.24
72712;SHT30;60828;40.292;17.998;2022-12-20T08:07:55;23.89;45.90
72712;SHT30;60828;40.292;17.998;2022-12-20T08:10:22;22.78;47.58
72712;SHT30;60828;40.292;17.998;2022-12-20T08:12:47;20.77;51.80
72712;SHT30;60828;40.292;17.998;2022-12-20T08:15:14;19.87;55.21
72712;SHT30;60828;40.292;17.998;2022-12-20T08:17:40;19.49;56.17
72712;SHT30;60828;40.292;17.998;2022-12-20T08:20:06;18.98;57.61
72712;SHT30;60828;40.292;17.998;2022-12-20T08:22:33;18.64;58.70
72712;SHT30;60828;40.292;17.998;2022-12-20T08:24:59;17.81;61.07
72712;SHT30;60828;40.292;17.998;2022-12-20T08:27:25;19.15;58.87
72712;SHT30;60828;40.292;17.998;2022-12-20T08:29:50;20.93;55.77
72712;SHT30;60828;40.292;17.998;2022-12-20T08:32:16;21.13;54.23
72712;SHT30;60828;40.292;17.998;2022-12-20T08:34:41;22.72;50.39
72712;SHT30;60828;40.292;17.998;2022-12-20T08:37:07;22.51;49.69
72712;SHT30;60828;40.292;17.998;2022-12-20T08:39:32;22.94;50.23
72712;SHT30;60828;40.292;17.998;2022-12-20T08:41:58;22.54;50.25
72712;SHT30;60828;40.292;17.998;2022-12-20T08:44:23;20.90;54.05
72712;SHT30;60828;40.292;17.998;2022-12-20T08:46:49;21.93;52.14
72712;SHT30;60828;40.292;17.998;2022-12-20T08:49:15;21.92;51.94
72712;SHT30;60828;40.292;17.998;2022-12-20T08:51:40;21.66;53.32
72712;SHT30;60828;40.292;17.998;2022-12-20T08:54:06;23.54;49.54
72712;SHT30;60828;40.292;17.998;2022-12-20T08:56:32;24.57;46.41
72712;SHT30;60828;40.292;17.998;2022-12-20T08:58:58;24.02;47.68
72712;SHT30;60828;40.292;17.998;2022-12-20T09:01:23;25.12;45.28
72712;SHT30;60828;40.292;17.998;2022-12-20T09:03:51;25.87;43.57
72712;SHT30;60828;40.292;17.998;2022-12-20T09:06:18;23.73;47.52
72712;SHT30;60828;40.292;17.998;2022-12-20T09:08:44;22.65;50.31
72712;SHT30;60828;40.292;17.998;2022-12-20T09:11:13;23.22;47.93
72712;SHT30;60828;40.292;17.998;2022-12-20T09:13:40;22.72;50.62
72712;SHT30;60828;40.292;17.998;2022-12-20T09:16:06;22.52;49.50
72712;SHT30;60828;40.292;17.998;2022-12-20T09:18:33;24.04;47.44
72712;SHT30;60828;40.292;17.998;2022-12-20T09:21:03;25.47;44.36
72712;SHT30;60828;40.292;17.998;2022-12-20T09:23:30;27.07;42.13
72712;SHT30;60828;40.292;17.998;2022-12-20T09:26:04;25.81;43.14
72712;SHT30;60828;40.292;17.998;2022-12-20T09:28:30;24.06;46.62
72712;SHT30;60828;40.292;17.998;2022-12-20T09:31:03;22.05;51.33
72712;SHT30;60828;40.292;17.998;2022-12-20T09:33:31;21.27;52.87
72712;SHT30;60828;40.292;17.998;2022-12-20T09:35:57;20.11;56.11
72712;SHT30;60828;40.292;17.998;2022-12-20T09:38:23;19.21;58.67
72712;SHT30;60828;40.292;17.998;2022-12-20T09:40:50;18.80;59.04
72712;SHT30;60828;40.292;17.998;2022-12-20T09:43:17;18.24;61.41
72712;SHT30;60828;40.292;17.998;2022-12-20T09:45:45;17.66;62.73
72712;SHT30;60828;40.292;17.998;2022-12-20T09:48:23;17.46;64.20
72712;SHT30;60828;40.292;17.998;2022-12-20T09:59:13;16.79;65.41
72712;SHT30;60828;40.292;17.998;2022-12-20T10:01:44;16.75;65.88
72712;SHT30;60828;40.292;17.998;2022-12-20T10:04:26;16.68;66.31
72712;SHT30;60828;40.292;17.998;2022-12-20T10:15:11;17.11;65.97
72712;SHT30;60828;40.292;17.998;2022-12-20T10:17:53;17.20;65.42
72712;SHT30;60828;40.292;17.998;2022-12-20T10:20:54;17.02;65.12
72712;SHT30;60828;40.292;17.998;2022-12-20T10:24:01;16.92;65.11
72712;SHT30;60828;40.292;17.998;2022-12-20T10:26:28;16.78;65.55
72712;SHT30;60828;40.292;17.998;2022-12-20T10:28:53;16.77;63.54
72712;SHT30;60828;40.292;17.998;2022-12-20T10:31:19;16.74;63.02
72712;SHT30;60828;40.292;17.998;2022-12-20T10:33:45;16.81;63.62
72712;SHT30;60828;40.292;17.998;2022-12-20T10:36:26;16.94;62.43
72712;SHT30;60828;40.292;17.998;2022-12-20T10:39:05;16.40;63.11
72712;SHT30;60828;40.292;17.998;2022-12-20T10:41:49;16.05;64.02
72712;SHT30;60828;40.292;17.998;2022-12-20T10:44:28;15.86;66.84
72712;SHT30;60828;40.292;17.998;2022-12-20T10:46:58;15.96;66.72
72712;SHT30;60828;40.292;17.998;2022-12-20T10:49:31;15.89;67.98
72712;SHT30;60828;40.292;17.998;2022-12-20T10:52:03;15.91;67.16
72712;SHT30;60828;40.292;17.998;2022-12-20T10:54:42;15.88;66.01
72712;SHT30;60828;40.292;17.998;2022-12-20T10:57:18;15.85;64.59
72712;SHT30;60828;40.292;17.998;2022-12-20T10:59:51;16.02;65.10
72712;SHT30;60828;40.292;17.998;2022-12-20T11:07:58;15.47;66.46
72712;SHT30;60828;40.292;17.998;2022-12-20T11:10:25;15.44;66.44
72712;SHT30;60828;40.292;17.998;2022-12-20T11:12:56;15.77;66.62
72712;SHT30;60828;40.292;17.998;2022-12-20T11:15:28;15.72;66.57
72712;SHT30;60828;40.292;17.998;2022-12-20T11:18:16;15.66;68.31
72712;SHT30;60828;40.292;17.998;2022-12-20T11:21:10;15.74;69.97
72712;SHT30;60828;40.292;17.998;2022-12-20T11:23:47;15.77;70.73
72712;SHT30;60828;40.292;17.998;2022-12-20T11:34:49;15.57;70.51
72712;SHT30;60828;40.292;17.998;2022-12-20T11:37:17;15.81;69.23
72712;SHT30;60828;40.292;17.998;2022-12-20T11:53:42;15.86;67.40
72712;SHT30;60828;40.292;17.998;2022-12-20T11:56:15;15.71;68.19
72712;SHT30;60828;40.292;17.998;2022-12-20T11:58:55;15.44;69.43
72712;SHT30;60828;40.292;17.998;2022-12-20T12:01:37;15.26;69.59
72712;SHT30;60828;40.292;17.998;2022-12-20T12:04:10;15.34;70.05
72712;SHT30;60828;40.292;17.998;2022-12-20T12:06:41;15.38;69.31
72712;SHT30;60828;40.292;17.998;2022-12-20T12:09:16;15.55;68.91
72712;SHT30;60828;40.292;17.998;2022-12-20T12:12:45;15.20;68.17
72712;SHT30;60828;40.292;17.998;2022-12-20T12:22:52;14.45;70.97
72712;SHT30;60828;40.292;17.998;2022-12-20T12:25:19;14.38;70.48
72712;SHT30;60828;40.292;17.998;2022-12-20T12:27:44;14.40;71.16
72712;SHT30;60828;40.292;17.998;2022-12-20T12:30:16;14.37;71.18
72712;SHT30;60828;40.292;17.998;2022-12-20T12:32:59;14.69;70.79
72712;SHT30;60828;40.292;17.998;2022-12-20T12:36:19;14.78;69.97
72712;SHT30;60828;40.292;17.998;2022-12-20T12:45:02;14.34;70.58
72712;SHT30;60828;40.292;17.998;2022-12-20T12:47:58;14.34;70.87
72712;SHT30;60828;40.292;17.998;2022-12-20T12:50:36;14.38;72.12
72712;SHT30;60828;40.292;17.998;2022-12-20T12:53:11;14.58;72.35
72712;SHT30;60828;40.292;17.998;2022-12-20T12:55:46;14.46;71.60
72712;SHT30;60828;40.292;17.998;2022-12-20T13:11:31;13.90;73.41
72712;SHT30;60828;40.292;17.998;2022-12-20T13:19:38;14.16;72.93
72712;SHT30;60828;40.292;17.998;2022-12-20T13:27:24;14.09;73.75
72712;SHT30;60828;40.292;17.998;2022-12-20T13:37:51;14.51;74.63
72712;SHT30;60828;40.292;17.998;2022-12-20T13:40:48;14.61;75.29
72712;SHT30;60828;40.292;17.998;2022-12-20T13:45:56;14.45;76.15
72712;SHT30;60828;40.292;17.998;2022-12-20T13:48:52;14.31;76.65
72712;SHT30;60828;40.292;17.998;2022-12-20T13:51:26;14.20;77.04
72712;SHT30;60828;40.292;17.998;2022-12-20T13:54:06;14.27;76.71
72712;SHT30;60828;40.292;17.998;2022-12-20T13:56:52;14.23;76.91
72712;SHT30;60828;40.292;17.998;2022-12-20T13:59:21;14.14;77.01
72712;SHT30;60828;40.292;17.998;2022-12-20T14:01:51;14.23;76.45
72712;SHT30;60828;40.292;17.998;2022-12-20T14:04:18;14.37;76.05
72712;SHT30;60828;40.292;17.998;2022-12-20T14:06:49;14.27;76.29
72712;SHT30;60828;40.292;17.998;2022-12-20T14:12:15;14.27;76.39
72712;SHT30;60828;40.292;17.998;2022-12-20T14:14:45;14.55;76.12
72712;SHT30;60828;40.292;17.998;2022-12-20T14:17:29;14.58;75.88
72712;SHT30;60828;40.292;17.998;2022-12-20T14:22:33;14.62;75.54
72712;SHT30;60828;40.292;17.998;2022-12-20T14:24:59;14.40;75.89
72712;SHT30;60828;40.292;17.998;2022-12-20T14:27:28;14.27;76.22
72712;SHT30;60828;40.292;17.998;2022-12-20T14:29:56;14.18;74.99
72712;SHT30;60828;40.292;17.998;2022-12-20T14:32:22;14.04;75.13
72712;SHT30;60828;40.292;17.998;2022-12-20T14:34:48;13.95;75.39
72712;SHT30;60828;40.292;17.998;2022-12-20T14:40:13;13.87;75.72
72712;SHT30;60828;40.292;17.998;2022-12-20T14:42:40;13.85;75.90
72712;SHT30;60828;40.292;17.998;2022-12-20T14:47:35;13.62;76.53
72712;SHT30;60828;40.292;17.998;2022-12-20T14:50:06;13.57;77.11
72712;SHT30;60828;40.292;17.998;2022-12-20T14:52:41;13.48;77.37
72712;SHT30;60828;40.292;17.998;2022-12-20T14:55:16;13.51;77.15
72712;SHT30;60828;40.292;17.998;2022-12-20T14:57:49;13.44;77.23
72712;SHT30;60828;40.292;17.998;2022-12-20T15:00:31;13.48;77.09
72712;SHT30;60828;40.292;17.998;2022-12-20T15:03:17;13.42;77.09
72712;SHT30;60828;40.292;17.998;2022-12-20T15:05:50;13.45;76.82
72712;SHT30;60828;40.292;17.998;2022-12-20T15:10:58;13.30;77.05
72712;SHT30;60828;40.292;17.998;2022-12-20T15:15:52;13.08;77.57
72712;SHT30;60828;40.292;17.998;2022-12-20T15:18:19;13.03;77.89
72712;SHT30;60828;40.292;17.998;2022-12-20T15:20:48;12.87;78.41
72712;SHT30;60828;40.292;17.998;2022-12-20T15:23:18;12.83;78.45
72712;SHT30;60828;40.292;17.998;2022-12-20T15:25:50;12.84;78.66
72712;SHT30;60828;40.292;17.998;2022-12-20T15:28:20;12.70;78.72
72712;SHT30;60828;40.292;17.998;2022-12-20T15:30:47;12.66;79.00
72712;SHT30;60828;40.292;17.998;2022-12-20T15:33:19;12.59;79.13
72712;SHT30;60828;40.292;17.998;2022-12-20T15:35:46;12.48;79.35
72712;SHT30;60828;40.292;17.998;2022-12-20T15:38:17;12.42;79.52
72712;SHT30;60828;40.292;17.998;2022-12-20T15:40:45;12.41;79.83
72712;SHT30;60828;40.292;17.998;2022-12-20T15:43:12;12.29;80.19
72712;SHT30;60828;40.292;17.998;2022-12-20T15:45:39;12.20;80.51
72712;SHT30;60828;40.292;17.998;2022-12-20T15:48:04;12.15;80.68
72712;SHT30;60828;40.292;17.998;2022-12-20T15:50:30;12.13;80.74
72712;SHT30;60828;40.292;17.998;2022-12-20T15:52:55;12.08;80.85
72712;SHT30;60828;40.292;17.998;2022-12-20T15:55:22;11.97;81.12
72712;SHT30;60828;40.292;17.998;2022-12-20T15:57:48;11.90;81.17
72712;SHT30;60828;40.292;17.998;2022-12-20T16:00:13;11.90;81.28
72712;SHT30;60828;40.292;17.998;2022-12-20T16:02:39;11.88;81.41
72712;SHT30;60828;40.292;17.998;2022-12-20T16:05:05;11.86;81.56
72712;SHT30;60828;40.292;17.998;2022-12-20T16:07:30;11.80;81.55
72712;SHT30;60828;40.292;17.998;2022-12-20T16:09:56;11.70;81.67
72712;SHT30;60828;40.292;17.998;2022-12-20T16:12:27;11.74;81.81
72712;SHT30;60828;40.292;17.998;2022-12-20T16:14:53;11.73;81.77
72712;SHT30;60828;40.292;17.998;2022-12-20T16:17:19;11.67;81.83
72712;SHT30;60828;40.292;17.998;2022-12-20T16:19:44;11.55;81.93
72712;SHT30;60828;40.292;17.998;2022-12-20T16:22:15;11.46;82.23
72712;SHT30;60828;40.292;17.998;2022-12-20T16:24:41;11.44;82.39
72712;SHT30;60828;40.292;17.998;2022-12-20T16:27:08;11.46;82.18
72712;SHT30;60828;40.292;17.998;2022-12-20T16:29:33;11.29;82.51
72712;SHT30;60828;40.292;17.998;2022-12-20T16:31:59;11.32;82.63
72712;SHT30;60828;40.292;17.998;2022-12-20T16:34:24;11.33;82.45
72712;SHT30;60828;40.292;17.998;2022-12-20T16:36:50;11.23;82.56
72712;SHT30;60828;40.292;17.998;2022-12-20T16:39:16;11.15;82.80
72712;SHT30;60828;40.292;17.998;2022-12-20T16:41:41;11.05;82.81
72712;SHT30;60828;40.292;17.998;2022-12-20T16:44:17;11.11;82.76
72712;SHT30;60828;40.292;17.998;2022-12-20T16:46:43;11.05;82.86
72712;SHT30;60828;40.292;17.998;2022-12-20T16:49:10;11.08;82.86
72712;SHT30;60828;40.292;17.998;2022-12-20T16:51:44;11.08;82.92
72712;SHT30;60828;40.292;17.998;2022-12-20T16:54:18;11.04;83.03
72712;SHT30;60828;40.292;17.998;2022-12-20T16:56:45;10.81;83.26
72712;SHT30;60828;40.292;17.998;2022-12-20T16:59:16;10.78;83.42
72712;SHT30;60828;40.292;17.998;2022-12-20T17:01:43;10.80;83.31
72712;SHT30;60828;40.292;17.998;2022-12-20T17:04:13;10.78;83.26
72712;SHT30;60828;40.292;17.998;2022-12-20T17:06:39;10.77;83.32
72712;SHT30;60828;40.292;17.998;2022-12-20T17:09:04;10.66;83.33
72712;SHT30;60828;40.292;17.998;2022-12-20T17:11:30;10.74;83.20
72712;SHT30;60828;40.292;17.998;2022-12-20T17:13:57;10.67;83.36
72712;SHT30;60828;40.292;17.998;2022-12-20T17:16:23;10.59;83.32
72712;SHT30;60828;40.292;17.998;2022-12-20T17:18:51;10.50;83.41
72712;SHT30;60828;40.292;17.998;2022-12-20T17:21:36;10.53;83.53
72712;SHT30;60828;40.292;17.998;2022-12-20T17:24:08;10.60;83.42
72712;SHT30;60828;40.292;17.998;2022-12-20T17:26:38;10.64;83.43
72712;SHT30;60828;40.292;17.998;2022-12-20T17:29:03;10.70;83.18
72712;SHT30;60828;40.292;17.998;2022-12-20T17:31:32;10.81;82.97
72712;SHT30;60828;40.292;17.998;2022-12-20T17:34:28;10.90;82.48
72712;SHT30;60828;40.292;17.998;2022-12-20T17:36:56;10.77;82.80
72712;SHT30;60828;40.292;17.998;2022-12-20T17:39:23;10.85;82.73
72712;SHT30;60828;40.292;17.998;2022-12-20T17:41:49;10.93;82.90